Stolt Surf — ZCSR3 — position and weather

sailwx.info

Track history (hours):
 
Tides and Currents Weather Stations Pressure Air Temp Water Temp Dewpoint Dewpoint Depression Visibility Wind Speed Wind Dir Waves Ship Positions

Stolt Surf

Last reported at 2017-Apr-21 05:43 UTC. Time now 2017-May-24 06:06 UTC.
Position N 36°10' E 014°48'.
Warning: this ship's position is 33 days out of date.

Length 163 m; draft 7.7 m.

Type: Ship. MMSI: 319545000.

Date/timePositionNaut miles runAvg speedWind from/ knotsBaromVisibWave heightAir tempDewpointWater temp
2017-Apr-21 05:43N 36°10' E 014°48'313.6
2017-Apr-21 05:30N 36°10' E 014°44'612.6
2017-Apr-21 05:00N 36°12' E 014°37'713.0
2017-Apr-21 04:30N 36°15' E 014°29'713.6
2017-Apr-21 04:00N 36°17' E 014°21'713.6
2017-Apr-21 03:30N 36°19' E 014°13'713.8
2017-Apr-21 03:00N 36°21' E 014°05'713.8
2017-Apr-21 02:30N 36°23' E 013°57'714.0
2017-Apr-21 02:00N 36°25' E 013°49'67513.8
2017-Apr-19 01:14N 36°37' W 000°11'414.4
2017-Apr-19 00:57N 36°36' W 000°16'2114.5
2017-Apr-18 23:30N 36°31' W 000°41'914.6
2017-Apr-18 22:52N 36°28' W 000°52'615.3
2017-Apr-18 22:29N 36°27' W 000°59'715.2
2017-Apr-18 22:00N 36°26' W 001°08'915.0
2017-Apr-18 21:23N 36°23' W 001°19'615.0
2017-Apr-18 21:00N 36°22' W 001°26'715.2
2017-Apr-18 20:30N 36°20' W 001°35'814.8
2017-Apr-18 20:00N 36°18' W 001°44'714.3
2017-Apr-18 19:30N 36°16' W 001°53'1413.9
2017-Apr-18 18:28N 36°14' W 002°10'714.3
2017-Apr-18 18:00N 36°13' W 002°19'714.9
2017-Apr-18 17:30N 36°13' W 002°28'714.4
2017-Apr-18 17:00N 36°12' W 002°37'714.3
2017-Apr-18 16:30N 36°11' W 002°45'714.3
2017-Apr-18 15:59N 36°11' W 002°55'1914.4
2017-Apr-18 14:39N 36°08' W 003°18'214.7
2017-Apr-18 14:30N 36°08' W 003°21'7715.6
2017-Apr-18 09:37N 36°02' W 004°55'215.3
2017-Apr-18 09:30N 36°01' W 004°57'815.5
2017-Apr-18 09:00N 36°01' W 005°07'816.3
2017-Apr-18 08:30N 35°60' W 005°17'816.2
2017-Apr-18 08:00N 35°57' W 005°26'715.0
2017-Apr-18 07:30N 35°55' W 005°35'714.2
2017-Apr-18 07:00N 35°54' W 005°44'1314.5
2017-Apr-18 06:08N 35°54' W 005°59'214.4
2017-Apr-18 06:00N 35°54' W 006°02'7114.1
2017-Apr-18 01:01N 36°06' W 007°27'214.6
2017-Apr-18 00:53N 36°07' W 007°30'614.7
2017-Apr-18 00:30N 36°09' W 007°37'715.2
2017-Apr-18 00:00N 36°10' W 007°46'815.1
2017-Apr-17 23:30N 36°12' W 007°55'1415.1
2017-Apr-17 22:35N 36°16' W 008°11'115.0
2017-Apr-17 22:30N 36°16' W 008°13'815.2
2017-Apr-17 22:00N 36°18' W 008°22'715.1
2017-Apr-17 21:30N 36°20' W 008°31'715.0
2017-Apr-17 21:00N 36°22' W 008°40'814.9
2017-Apr-17 20:29N 36°23' W 008°49'714.8
2017-Apr-17 20:00N 36°25' W 008°58'714.9
2017-Apr-17 19:30N 36°27' W 009°07'814.9
2017-Apr-17 19:00N 36°29' W 009°16'714.4
2017-Apr-17 18:30N 36°32' W 009°24'714.7
2017-Apr-17 18:00N 36°38' W 009°30'815.3
2017-Apr-17 17:30N 36°44' W 009°36'815.2
2017-Apr-17 17:00N 36°51' W 009°39'815.2
2017-Apr-17 16:30N 36°58' W 009°41'715.1
2017-Apr-17 16:00N 37°06' W 009°44'815.2
2017-Apr-17 15:30N 37°13' W 009°46'1115.3
2017-Apr-17 14:49N 37°23' W 009°49'1615.5
2017-Apr-17 13:48N 37°39' W 009°54'515.9
2017-Apr-17 13:29N 37°44' W 009°55'715.3
2017-Apr-17 13:01N 37°51' W 009°57'815.1
2017-Apr-17 12:30N 37°58' W 009°59'815.5
2017-Apr-17 12:00N 38°06' W 010°01'815.3
2017-Apr-17 11:30N 38°13' W 010°03'815.4
2017-Apr-17 11:00N 38°21' W 010°06'815.1
2017-Apr-17 10:30N 38°28' W 010°08'815.1
2017-Apr-17 10:00N 38°35' W 010°10'815.0
2017-Apr-17 09:30N 38°43' W 010°12'815.1
2017-Apr-17 09:00N 38°50' W 010°12'815.2
2017-Apr-17 08:30N 38°58' W 010°12'815.1
2017-Apr-17 08:00N 39°05' W 010°12'815.1
2017-Apr-17 07:30N 39°13' W 010°12'815.1
2017-Apr-17 07:00N 39°20' W 010°12'815.2
2017-Apr-17 06:30N 39°28' W 010°12'815.2
2017-Apr-17 06:00N 39°36' W 010°13'815.0
2017-Apr-17 05:30N 39°43' W 010°13'715.1
2017-Apr-17 05:01N 39°51' W 010°13'815.3
2017-Apr-17 04:30N 39°58' W 010°13'65014.4
2017-Apr-15 07:27N 49°45' W 003°37'512.4
2017-Apr-15 07:00N 49°48' W 003°30'612.7
2017-Apr-15 06:31N 49°51' W 003°21'713.3
2017-Apr-15 06:01N 49°54' W 003°12'714.1
2017-Apr-15 05:30N 49°57' W 003°02'714.7
2017-Apr-15 05:01N 50°01' W 002°52'815.5
2017-Apr-15 04:28N 50°03' W 002°40'5315.6
2017-Apr-15 01:04N 50°17' W 001°20'113.5
2017-Apr-15 01:00N 50°17' W 001°18'713.0
2017-Apr-15 00:30N 50°19' W 001°08'2111.1
2017-Apr-14 22:36N 50°25' W 000°37'410.7
2017-Apr-14 22:16N 50°26' W 000°31'311.0
2017-Apr-14 22:00N 50°27' W 000°27'611.4
2017-Apr-14 21:30N 50°28' W 000°18'712.1
2017-Apr-14 20:58N 50°30' W 000°08'612.7
2017-Apr-14 20:30N 50°31' E 000°00'713.3
2017-Apr-14 20:00N 50°33' E 000°11'814.1
2017-Apr-14 19:26N 50°35' E 000°23'614.7
2017-Apr-14 19:00N 50°37' E 000°32'714.8
2017-Apr-14 18:30N 50°41' E 000°42'714.7
2017-Apr-14 18:00N 50°45' E 000°52'714.2
2017-Apr-14 17:29N 50°49' E 001°01'713.8
2017-Apr-14 17:00N 50°54' E 001°09'713.2
2017-Apr-14 16:30N 50°58' E 001°17'612.4
2017-Apr-14 16:00N 51°02' E 001°24'611.6
2017-Apr-14 15:30N 51°06' E 001°31'510.6
2017-Apr-14 15:00N 51°09' E 001°38'510.8
2017-Apr-14 14:30N 51°12' E 001°45'1111.5
2017-Apr-14 13:30N 51°22' E 001°55'611.4
2017-Apr-14 13:00N 51°24' E 002°04'713.6
2017-Apr-14 12:30N 51°21' E 002°14'713.2
2017-Apr-14 12:00N 51°22' E 002°24'714.4
2017-Apr-14 11:30N 51°23' E 002°35'713.3
2017-Apr-14 11:01N 51°22' E 002°46'714.6
2017-Apr-14 10:31N 51°23' E 002°57'713.7
2017-Apr-14 10:01N 51°24' E 003°08'714.5
2017-Apr-14 09:31N 51°24' E 003°20'815.1
2017-Apr-14 09:01N 51°25' E 003°32'612.3
2017-Apr-14 08:30N 51°26' E 003°42'714.0
2017-Apr-14 08:00N 51°21' E 003°50'815.1
2017-Apr-14 07:31N 51°26' E 003°58'713.0
2017-Apr-14 07:00N 51°22' E 004°07'4 8.3
2017-Apr-14 06:30N 51°22' E 004°14'2 4.7
2017-Apr-14 06:01N 51°21' E 004°17'0 0.0
2017-Apr-14 05:30N 51°21' E 004°17'0 0.0
2017-Apr-14 05:00N 51°21' E 004°17'1 1.6
2017-Apr-14 04:30N 51°20' E 004°18'3 6.2
2017-Apr-14 04:00N 51°17' E 004°20'2 4.2
2017-Apr-14 03:31N 51°16' E 004°22'0 0.1
2017-Apr-14 03:00N 51°16' E 004°22'0 0.0
2017-Apr-14 02:30N 51°16' E 004°22'0 0.0
2017-Apr-14 02:00N 51°16' E 004°22'0 0.0
2017-Apr-14 01:30N 51°16' E 004°22'0 0.0
2017-Apr-14 01:00N 51°16' E 004°22'0 0.0
2017-Apr-14 00:30N 51°16' E 004°22'0 0.0
2017-Apr-14 00:00N 51°16' E 004°22'0 0.0
2017-Apr-13 23:30N 51°16' E 004°22'0 0.0
2017-Apr-13 23:00N 51°16' E 004°22'0 0.0
2017-Apr-13 22:30N 51°16' E 004°22'0 0.0
2017-Apr-13 22:00N 51°16' E 004°22'0 0.0
2017-Apr-13 21:30N 51°16' E 004°22'0 0.0
2017-Apr-13 21:00N 51°16' E 004°22'0 0.0
2017-Apr-13 20:30N 51°16' E 004°22'0 0.0
2017-Apr-13 20:00N 51°16' E 004°22'0 0.0
2017-Apr-13 19:30N 51°16' E 004°22'0 0.0
2017-Apr-13 19:00N 51°16' E 004°22'0 0.0
2017-Apr-13 18:30N 51°16' E 004°22'0 0.0
2017-Apr-13 18:00N 51°16' E 004°22'0 0.0
2017-Apr-13 17:30N 51°16' E 004°22'0 0.0
2017-Apr-13 16:57N 51°16' E 004°22'0 0.0
2017-Apr-13 16:30N 51°16' E 004°22'0 0.0
2017-Apr-13 16:00N 51°16' E 004°22'0 0.0
2017-Apr-13 15:30N 51°16' E 004°22'0 0.0
2017-Apr-13 14:57N 51°16' E 004°22'0 0.0
2017-Apr-13 14:00N 51°16' E 004°22'0 0.3
2017-Apr-13 13:31N 51°15' E 004°21'0 0.8
2017-Apr-13 12:58N 51°15' E 004°22'0 0.0
2017-Apr-13 12:28N 51°15' E 004°22'0 0.0
2017-Apr-13 11:58N 51°15' E 004°22'0 0.0
2017-Apr-13 11:28N 51°15' E 004°22'0 0.0
2017-Apr-13 10:58N 51°15' E 004°22'0 0.0
2017-Apr-13 10:28N 51°15' E 004°22'0 0.0
2017-Apr-13 09:58N 51°15' E 004°22'0 0.0
2017-Apr-13 09:28N 51°15' E 004°22'0 0.0
2017-Apr-13 08:58N 51°15' E 004°22'0 0.0
2017-Apr-13 08:25N 51°15' E 004°22'0 0.0
2017-Apr-13 07:58N 51°15' E 004°22'0 0.0
2017-Apr-13 07:28N 51°15' E 004°22'0 0.0
2017-Apr-13 06:58N 51°15' E 004°22'0 0.0
2017-Apr-13 06:28N 51°15' E 004°22'0 0.0
2017-Apr-13 05:58N 51°15' E 004°22'0 0.0
2017-Apr-13 05:28N 51°15' E 004°22'0 0.0
2017-Apr-13 04:58N 51°15' E 004°22'0 0.0
2017-Apr-13 04:28N 51°15' E 004°22'0 0.0
2017-Apr-13 03:52N 51°15' E 004°22'0 0.0
2017-Apr-13 03:25N 51°15' E 004°22'0 0.0
2017-Apr-13 02:58N 51°15' E 004°22'0 0.0
2017-Apr-13 02:28N 51°15' E 004°22'0 0.0
2017-Apr-13 01:58N 51°15' E 004°22'0 0.0
2017-Apr-13 01:28N 51°15' E 004°22'0 0.0
2017-Apr-13 00:58N 51°15' E 004°22'0 0.0
2017-Apr-13 00:28N 51°15' E 004°22'0 0.0
2017-Apr-12 23:58N 51°15' E 004°22'0 0.0
2017-Apr-12 23:28N 51°15' E 004°22'0 0.0
2017-Apr-12 22:58N 51°15' E 004°22'0 0.0
2017-Apr-12 22:28N 51°15' E 004°22'0 0.0
2017-Apr-12 21:58N 51°15' E 004°22'0 0.0
2017-Apr-12 21:28N 51°15' E 004°22'0 0.0
2017-Apr-12 20:58N 51°15' E 004°22'0 0.0
2017-Apr-12 20:28N 51°15' E 004°22'0 0.0
2017-Apr-12 19:58N 51°15' E 004°22'0 0.0
2017-Apr-12 19:28N 51°15' E 004°22'0 0.0
2017-Apr-12 18:58N 51°15' E 004°22'0 0.0
2017-Apr-12 18:28N 51°15' E 004°22'0 0.0
2017-Apr-12 17:58N 51°15' E 004°22'0 0.0
2017-Apr-12 17:28N 51°15' E 004°22'0 0.0
2017-Apr-12 16:55N 51°15' E 004°22'0 0.0
2017-Apr-12 16:28N 51°15' E 004°22'0 0.0
2017-Apr-12 15:58N 51°15' E 004°22'0 0.0
2017-Apr-12 15:28N 51°15' E 004°22'0 0.0
2017-Apr-12 14:58N 51°15' E 004°22'0 0.0
2017-Apr-12 13:55N 51°15' E 004°22'0 0.0
2017-Apr-12 13:28N 51°15' E 004°22'0 0.0
2017-Apr-12 12:58N 51°15' E 004°22'0 0.0
2017-Apr-12 12:28N 51°15' E 004°22'0 0.0
2017-Apr-12 11:58N 51°15' E 004°22'0 0.0
2017-Apr-12 11:28N 51°15' E 004°22'0 0.0
2017-Apr-12 10:58N 51°15' E 004°22'0 0.0
2017-Apr-12 10:28N 51°15' E 004°22'0 0.0
2017-Apr-12 09:55N 51°15' E 004°22'0 0.0
2017-Apr-12 09:28N 51°15' E 004°22'0 0.0
2017-Apr-12 08:58N 51°15' E 004°22'0 0.0
2017-Apr-12 08:28N 51°15' E 004°22'0 0.0
2017-Apr-12 07:58N 51°15' E 004°22'0 0.9
2017-Apr-12 07:30N 51°15' E 004°22'0 0.5
2017-Apr-12 06:59N 51°15' E 004°21'0 0.0
2017-Apr-12 06:14N 51°15' E 004°21'0 0.0
2017-Apr-12 05:59N 51°15' E 004°21'0 0.0
2017-Apr-12 05:29N 51°15' E 004°21'0 0.0
2017-Apr-12 04:59N 51°15' E 004°21'0 0.0
2017-Apr-12 04:29N 51°15' E 004°21'0 0.0
2017-Apr-12 03:59N 51°15' E 004°21'0 0.0
2017-Apr-12 03:29N 51°15' E 004°21'0 0.0
2017-Apr-12 02:59N 51°15' E 004°21'0 0.0
2017-Apr-12 02:29N 51°15' E 004°21'0 0.0
2017-Apr-12 01:59N 51°15' E 004°21'0 0.0
2017-Apr-12 01:29N 51°15' E 004°21'0 0.0
2017-Apr-12 00:59N 51°15' E 004°21'0 0.0
2017-Apr-12 00:29N 51°15' E 004°21'0 0.0
2017-Apr-11 23:59N 51°15' E 004°21'0 0.0
2017-Apr-11 23:29N 51°15' E 004°21'0 0.0
2017-Apr-11 22:59N 51°15' E 004°21'0 0.0
2017-Apr-11 22:29N 51°15' E 004°21'0 0.0
2017-Apr-11 21:53N 51°15' E 004°21'0 0.0
2017-Apr-11 21:29N 51°15' E 004°21'0 0.0
2017-Apr-11 20:59N 51°15' E 004°21'0 0.0
2017-Apr-11 20:29N 51°15' E 004°21'0 0.0
2017-Apr-11 19:59N 51°15' E 004°21'0 0.0
2017-Apr-11 19:29N 51°15' E 004°21'0 0.0
2017-Apr-11 18:59N 51°15' E 004°21'0 0.0
2017-Apr-11 18:29N 51°15' E 004°21'0 0.0
2017-Apr-11 17:59N 51°15' E 004°21'0 0.0
2017-Apr-11 17:29N 51°15' E 004°21'0 0.0
2017-Apr-11 16:56N 51°15' E 004°21'0 0.0
2017-Apr-11 16:29N 51°15' E 004°21'0 0.0
2017-Apr-11 15:59N 51°15' E 004°21'0 0.0
2017-Apr-11 15:29N 51°15' E 004°21'0 0.0
2017-Apr-11 14:59N 51°15' E 004°21'0 0.0
2017-Apr-11 14:29N 51°15' E 004°21'0 0.0
2017-Apr-11 13:29N 51°15' E 004°21'0 0.0
2017-Apr-11 12:59N 51°15' E 004°21'0 0.0
2017-Apr-11 12:29N 51°15' E 004°21'0 0.0
2017-Apr-11 11:59N 51°15' E 004°21'0 0.0
2017-Apr-11 11:29N 51°15' E 004°21'0 0.0
2017-Apr-11 10:59N 51°15' E 004°21'0 0.0
2017-Apr-11 10:29N 51°15' E 004°21'0 0.0
2017-Apr-11 09:59N 51°15' E 004°21'0 0.0
2017-Apr-11 09:29N 51°15' E 004°21'0 0.0
2017-Apr-11 08:59N 51°15' E 004°21'0 0.0
2017-Apr-11 08:29N 51°15' E 004°21'0 0.0
2017-Apr-11 07:59N 51°15' E 004°21'0 0.0
2017-Apr-11 07:29N 51°15' E 004°21'0 0.0
2017-Apr-11 06:59N 51°15' E 004°21'0 0.0
2017-Apr-11 06:26N 51°15' E 004°21'0 0.0
2017-Apr-11 05:59N 51°15' E 004°21'  
Track history (hours):
 
Tides and Currents Weather Stations Pressure Air Temp Water Temp Dewpoint Dewpoint Depression Visibility Wind Speed Wind Dir Waves Ship Positions

Stolt Surf

Last reported at 2017-Apr-21 05:43 UTC. Time now 2017-May-24 06:06 UTC.
Position N 36°10' E 014°48'.
Warning: this ship's position is 33 days out of date.

Length 163 m; draft 7.7 m.

Type: Ship. MMSI: 319545000.

Date/timePositionNaut miles runAvg speedWind from/ knotsBaromVisibWave heightAir tempDewpointWater temp
2017-Apr-21 05:43N 36°10' E 014°48'313.6
2017-Apr-21 05:30N 36°10' E 014°44'612.6
2017-Apr-21 05:00N 36°12' E 014°37'713.0
2017-Apr-21 04:30N 36°15' E 014°29'713.6
2017-Apr-21 04:00N 36°17' E 014°21'713.6
2017-Apr-21 03:30N 36°19' E 014°13'713.8
2017-Apr-21 03:00N 36°21' E 014°05'713.8
2017-Apr-21 02:30N 36°23' E 013°57'714.0
2017-Apr-21 02:00N 36°25' E 013°49'67513.8
2017-Apr-19 01:14N 36°37' W 000°11'414.4
2017-Apr-19 00:57N 36°36' W 000°16'2114.5
2017-Apr-18 23:30N 36°31' W 000°41'914.6
2017-Apr-18 22:52N 36°28' W 000°52'615.3
2017-Apr-18 22:29N 36°27' W 000°59'715.2
2017-Apr-18 22:00N 36°26' W 001°08'915.0
2017-Apr-18 21:23N 36°23' W 001°19'615.0
2017-Apr-18 21:00N 36°22' W 001°26'715.2
2017-Apr-18 20:30N 36°20' W 001°35'814.8
2017-Apr-18 20:00N 36°18' W 001°44'714.3
2017-Apr-18 19:30N 36°16' W 001°53'1413.9
2017-Apr-18 18:28N 36°14' W 002°10'714.3
2017-Apr-18 18:00N 36°13' W 002°19'714.9
2017-Apr-18 17:30N 36°13' W 002°28'714.4
2017-Apr-18 17:00N 36°12' W 002°37'714.3
2017-Apr-18 16:30N 36°11' W 002°45'714.3
2017-Apr-18 15:59N 36°11' W 002°55'1914.4
2017-Apr-18 14:39N 36°08' W 003°18'214.7
2017-Apr-18 14:30N 36°08' W 003°21'7715.6
2017-Apr-18 09:37N 36°02' W 004°55'215.3
2017-Apr-18 09:30N 36°01' W 004°57'815.5
2017-Apr-18 09:00N 36°01' W 005°07'816.3
2017-Apr-18 08:30N 35°60' W 005°17'816.2
2017-Apr-18 08:00N 35°57' W 005°26'715.0
2017-Apr-18 07:30N 35°55' W 005°35'714.2
2017-Apr-18 07:00N 35°54' W 005°44'1314.5
2017-Apr-18 06:08N 35°54' W 005°59'214.4
2017-Apr-18 06:00N 35°54' W 006°02'7114.1
2017-Apr-18 01:01N 36°06' W 007°27'214.6
2017-Apr-18 00:53N 36°07' W 007°30'614.7
2017-Apr-18 00:30N 36°09' W 007°37'715.2
2017-Apr-18 00:00N 36°10' W 007°46'815.1
2017-Apr-17 23:30N 36°12' W 007°55'1415.1
2017-Apr-17 22:35N 36°16' W 008°11'115.0
2017-Apr-17 22:30N 36°16' W 008°13'815.2
2017-Apr-17 22:00N 36°18' W 008°22'715.1
2017-Apr-17 21:30N 36°20' W 008°31'715.0
2017-Apr-17 21:00N 36°22' W 008°40'814.9
2017-Apr-17 20:29N 36°23' W 008°49'714.8
2017-Apr-17 20:00N 36°25' W 008°58'714.9
2017-Apr-17 19:30N 36°27' W 009°07'814.9
2017-Apr-17 19:00N 36°29' W 009°16'714.4
2017-Apr-17 18:30N 36°32' W 009°24'714.7
2017-Apr-17 18:00N 36°38' W 009°30'815.3
2017-Apr-17 17:30N 36°44' W 009°36'815.2
2017-Apr-17 17:00N 36°51' W 009°39'815.2
2017-Apr-17 16:30N 36°58' W 009°41'715.1
2017-Apr-17 16:00N 37°06' W 009°44'815.2
2017-Apr-17 15:30N 37°13' W 009°46'1115.3
2017-Apr-17 14:49N 37°23' W 009°49'1615.5
2017-Apr-17 13:48N 37°39' W 009°54'515.9
2017-Apr-17 13:29N 37°44' W 009°55'715.3
2017-Apr-17 13:01N 37°51' W 009°57'815.1
2017-Apr-17 12:30N 37°58' W 009°59'815.5
2017-Apr-17 12:00N 38°06' W 010°01'815.3
2017-Apr-17 11:30N 38°13' W 010°03'815.4
2017-Apr-17 11:00N 38°21' W 010°06'815.1
2017-Apr-17 10:30N 38°28' W 010°08'815.1
2017-Apr-17 10:00N 38°35' W 010°10'815.0
2017-Apr-17 09:30N 38°43' W 010°12'815.1
2017-Apr-17 09:00N 38°50' W 010°12'815.2
2017-Apr-17 08:30N 38°58' W 010°12'815.1
2017-Apr-17 08:00N 39°05' W 010°12'815.1
2017-Apr-17 07:30N 39°13' W 010°12'815.1
2017-Apr-17 07:00N 39°20' W 010°12'815.2
2017-Apr-17 06:30N 39°28' W 010°12'815.2
2017-Apr-17 06:00N 39°36' W 010°13'815.0
2017-Apr-17 05:30N 39°43' W 010°13'715.1
2017-Apr-17 05:01N 39°51' W 010°13'815.3
2017-Apr-17 04:30N 39°58' W 010°13'65014.4
2017-Apr-15 07:27N 49°45' W 003°37'512.4
2017-Apr-15 07:00N 49°48' W 003°30'612.7
2017-Apr-15 06:31N 49°51' W 003°21'713.3
2017-Apr-15 06:01N 49°54' W 003°12'714.1
2017-Apr-15 05:30N 49°57' W 003°02'714.7
2017-Apr-15 05:01N 50°01' W 002°52'815.5
2017-Apr-15 04:28N 50°03' W 002°40'5315.6
2017-Apr-15 01:04N 50°17' W 001°20'113.5
2017-Apr-15 01:00N 50°17' W 001°18'713.0
2017-Apr-15 00:30N 50°19' W 001°08'2111.1
2017-Apr-14 22:36N 50°25' W 000°37'410.7
2017-Apr-14 22:16N 50°26' W 000°31'311.0
2017-Apr-14 22:00N 50°27' W 000°27'611.4
2017-Apr-14 21:30N 50°28' W 000°18'712.1
2017-Apr-14 20:58N 50°30' W 000°08'612.7
2017-Apr-14 20:30N 50°31' E 000°00'713.3
2017-Apr-14 20:00N 50°33' E 000°11'814.1
2017-Apr-14 19:26N 50°35' E 000°23'614.7
2017-Apr-14 19:00N 50°37' E 000°32'714.8
2017-Apr-14 18:30N 50°41' E 000°42'714.7
2017-Apr-14 18:00N 50°45' E 000°52'714.2
2017-Apr-14 17:29N 50°49' E 001°01'713.8
2017-Apr-14 17:00N 50°54' E 001°09'713.2
2017-Apr-14 16:30N 50°58' E 001°17'612.4
2017-Apr-14 16:00N 51°02' E 001°24'611.6
2017-Apr-14 15:30N 51°06' E 001°31'510.6
2017-Apr-14 15:00N 51°09' E 001°38'510.8
2017-Apr-14 14:30N 51°12' E 001°45'1111.5
2017-Apr-14 13:30N 51°22' E 001°55'611.4
2017-Apr-14 13:00N 51°24' E 002°04'713.6
2017-Apr-14 12:30N 51°21' E 002°14'713.2
2017-Apr-14 12:00N 51°22' E 002°24'714.4
2017-Apr-14 11:30N 51°23' E 002°35'713.3
2017-Apr-14 11:01N 51°22' E 002°46'714.6
2017-Apr-14 10:31N 51°23' E 002°57'713.7
2017-Apr-14 10:01N 51°24' E 003°08'714.5
2017-Apr-14 09:31N 51°24' E 003°20'815.1
2017-Apr-14 09:01N 51°25' E 003°32'612.3
2017-Apr-14 08:30N 51°26' E 003°42'714.0
2017-Apr-14 08:00N 51°21' E 003°50'815.1
2017-Apr-14 07:31N 51°26' E 003°58'713.0
2017-Apr-14 07:00N 51°22' E 004°07'4 8.3
2017-Apr-14 06:30N 51°22' E 004°14'2 4.7
2017-Apr-14 06:01N 51°21' E 004°17'0 0.0
2017-Apr-14 05:30N 51°21' E 004°17'0 0.0
2017-Apr-14 05:00N 51°21' E 004°17'1 1.6
2017-Apr-14 04:30N 51°20' E 004°18'3 6.2
2017-Apr-14 04:00N 51°17' E 004°20'2 4.2
2017-Apr-14 03:31N 51°16' E 004°22'0 0.1
2017-Apr-14 03:00N 51°16' E 004°22'0 0.0
2017-Apr-14 02:30N 51°16' E 004°22'0 0.0
2017-Apr-14 02:00N 51°16' E 004°22'0 0.0
2017-Apr-14 01:30N 51°16' E 004°22'0 0.0
2017-Apr-14 01:00N 51°16' E 004°22'0 0.0
2017-Apr-14 00:30N 51°16' E 004°22'0 0.0
2017-Apr-14 00:00N 51°16' E 004°22'0 0.0
2017-Apr-13 23:30N 51°16' E 004°22'0 0.0
2017-Apr-13 23:00N 51°16' E 004°22'0 0.0
2017-Apr-13 22:30N 51°16' E 004°22'0 0.0
2017-Apr-13 22:00N 51°16' E 004°22'0 0.0
2017-Apr-13 21:30N 51°16' E 004°22'0 0.0
2017-Apr-13 21:00N 51°16' E 004°22'0 0.0
2017-Apr-13 20:30N 51°16' E 004°22'0 0.0
2017-Apr-13 20:00N 51°16' E 004°22'0 0.0
2017-Apr-13 19:30N 51°16' E 004°22'0 0.0
2017-Apr-13 19:00N 51°16' E 004°22'0 0.0
2017-Apr-13 18:30N 51°16' E 004°22'0 0.0
2017-Apr-13 18:00N 51°16' E 004°22'0 0.0
2017-Apr-13 17:30N 51°16' E 004°22'0 0.0
2017-Apr-13 16:57N 51°16' E 004°22'0 0.0
2017-Apr-13 16:30N 51°16' E 004°22'0 0.0
2017-Apr-13 16:00N 51°16' E 004°22'0 0.0
2017-Apr-13 15:30N 51°16' E 004°22'0 0.0
2017-Apr-13 14:57N 51°16' E 004°22'0 0.0
2017-Apr-13 14:00N 51°16' E 004°22'0 0.3
2017-Apr-13 13:31N 51°15' E 004°21'0 0.8
2017-Apr-13 12:58N 51°15' E 004°22'0 0.0
2017-Apr-13 12:28N 51°15' E 004°22'0 0.0
2017-Apr-13 11:58N 51°15' E 004°22'0 0.0
2017-Apr-13 11:28N 51°15' E 004°22'0 0.0
2017-Apr-13 10:58N 51°15' E 004°22'0 0.0
2017-Apr-13 10:28N 51°15' E 004°22'0 0.0
2017-Apr-13 09:58N 51°15' E 004°22'0 0.0
2017-Apr-13 09:28N 51°15' E 004°22'0 0.0
2017-Apr-13 08:58N 51°15' E 004°22'0 0.0
2017-Apr-13 08:25N 51°15' E 004°22'0 0.0
2017-Apr-13 07:58N 51°15' E 004°22'0 0.0
2017-Apr-13 07:28N 51°15' E 004°22'0 0.0
2017-Apr-13 06:58N 51°15' E 004°22'0 0.0
2017-Apr-13 06:28N 51°15' E 004°22'0 0.0
2017-Apr-13 05:58N 51°15' E 004°22'0 0.0
2017-Apr-13 05:28N 51°15' E 004°22'0 0.0
2017-Apr-13 04:58N 51°15' E 004°22'0 0.0
2017-Apr-13 04:28N 51°15' E 004°22'0 0.0
2017-Apr-13 03:52N 51°15' E 004°22'0 0.0
2017-Apr-13 03:25N 51°15' E 004°22'0 0.0
2017-Apr-13 02:58N 51°15' E 004°22'0 0.0
2017-Apr-13 02:28N 51°15' E 004°22'0 0.0
2017-Apr-13 01:58N 51°15' E 004°22'0 0.0
2017-Apr-13 01:28N 51°15' E 004°22'0 0.0
2017-Apr-13 00:58N 51°15' E 004°22'0 0.0
2017-Apr-13 00:28N 51°15' E 004°22'0 0.0
2017-Apr-12 23:58N 51°15' E 004°22'0 0.0
2017-Apr-12 23:28N 51°15' E 004°22'0 0.0
2017-Apr-12 22:58N 51°15' E 004°22'0 0.0
2017-Apr-12 22:28N 51°15' E 004°22'0 0.0
2017-Apr-12 21:58N 51°15' E 004°22'0 0.0
2017-Apr-12 21:28N 51°15' E 004°22'0 0.0
2017-Apr-12 20:58N 51°15' E 004°22'0 0.0
2017-Apr-12 20:28N 51°15' E 004°22'0 0.0
2017-Apr-12 19:58N 51°15' E 004°22'0 0.0
2017-Apr-12 19:28N 51°15' E 004°22'0 0.0
2017-Apr-12 18:58N 51°15' E 004°22'0 0.0
2017-Apr-12 18:28N 51°15' E 004°22'0 0.0
2017-Apr-12 17:58N 51°15' E 004°22'0 0.0
2017-Apr-12 17:28N 51°15' E 004°22'0 0.0
2017-Apr-12 16:55N 51°15' E 004°22'0 0.0
2017-Apr-12 16:28N 51°15' E 004°22'0 0.0
2017-Apr-12 15:58N 51°15' E 004°22'0 0.0
2017-Apr-12 15:28N 51°15' E 004°22'0 0.0
2017-Apr-12 14:58N 51°15' E 004°22'0 0.0
2017-Apr-12 13:55N 51°15' E 004°22'0 0.0
2017-Apr-12 13:28N 51°15' E 004°22'0 0.0
2017-Apr-12 12:58N 51°15' E 004°22'0 0.0
2017-Apr-12 12:28N 51°15' E 004°22'0 0.0
2017-Apr-12 11:58N 51°15' E 004°22'0 0.0
2017-Apr-12 11:28N 51°15' E 004°22'0 0.0
2017-Apr-12 10:58N 51°15' E 004°22'0 0.0
2017-Apr-12 10:28N 51°15' E 004°22'0 0.0
2017-Apr-12 09:55N 51°15' E 004°22'0 0.0
2017-Apr-12 09:28N 51°15' E 004°22'0 0.0
2017-Apr-12 08:58N 51°15' E 004°22'0 0.0
2017-Apr-12 08:28N 51°15' E 004°22'0 0.0
2017-Apr-12 07:58N 51°15' E 004°22'0 0.9
2017-Apr-12 07:30N 51°15' E 004°22'0 0.5
2017-Apr-12 06:59N 51°15' E 004°21'0 0.0
2017-Apr-12 06:14N 51°15' E 004°21'0 0.0
2017-Apr-12 05:59N 51°15' E 004°21'0 0.0
2017-Apr-12 05:29N 51°15' E 004°21'0 0.0
2017-Apr-12 04:59N 51°15' E 004°21'0 0.0
2017-Apr-12 04:29N 51°15' E 004°21'0 0.0
2017-Apr-12 03:59N 51°15' E 004°21'0 0.0
2017-Apr-12 03:29N 51°15' E 004°21'0 0.0
2017-Apr-12 02:59N 51°15' E 004°21'0 0.0
2017-Apr-12 02:29N 51°15' E 004°21'0 0.0
2017-Apr-12 01:59N 51°15' E 004°21'0 0.0
2017-Apr-12 01:29N 51°15' E 004°21'0 0.0
2017-Apr-12 00:59N 51°15' E 004°21'0 0.0
2017-Apr-12 00:29N 51°15' E 004°21'0 0.0
2017-Apr-11 23:59N 51°15' E 004°21'0 0.0
2017-Apr-11 23:29N 51°15' E 004°21'0 0.0
2017-Apr-11 22:59N 51°15' E 004°21'0 0.0
2017-Apr-11 22:29N 51°15' E 004°21'0 0.0
2017-Apr-11 21:53N 51°15' E 004°21'0 0.0
2017-Apr-11 21:29N 51°15' E 004°21'0 0.0
2017-Apr-11 20:59N 51°15' E 004°21'0 0.0
2017-Apr-11 20:29N 51°15' E 004°21'0 0.0
2017-Apr-11 19:59N 51°15' E 004°21'0 0.0
2017-Apr-11 19:29N 51°15' E 004°21'0 0.0
2017-Apr-11 18:59N 51°15' E 004°21'0 0.0
2017-Apr-11 18:29N 51°15' E 004°21'0 0.0
2017-Apr-11 17:59N 51°15' E 004°21'0 0.0
2017-Apr-11 17:29N 51°15' E 004°21'0 0.0
2017-Apr-11 16:56N 51°15' E 004°21'0 0.0
2017-Apr-11 16:29N 51°15' E 004°21'0 0.0
2017-Apr-11 15:59N 51°15' E 004°21'0 0.0
2017-Apr-11 15:29N 51°15' E 004°21'0 0.0
2017-Apr-11 14:59N 51°15' E 004°21'0 0.0
2017-Apr-11 14:29N 51°15' E 004°21'0 0.0
2017-Apr-11 13:29N 51°15' E 004°21'0 0.0
2017-Apr-11 12:59N 51°15' E 004°21'0 0.0
2017-Apr-11 12:29N 51°15' E 004°21'0 0.0
2017-Apr-11 11:59N 51°15' E 004°21'0 0.0
2017-Apr-11 11:29N 51°15' E 004°21'0 0.0
2017-Apr-11 10:59N 51°15' E 004°21'0 0.0
2017-Apr-11 10:29N 51°15' E 004°21'0 0.0
2017-Apr-11 09:59N 51°15' E 004°21'0 0.0
2017-Apr-11 09:29N 51°15' E 004°21'0 0.0
2017-Apr-11 08:59N 51°15' E 004°21'0 0.0
2017-Apr-11 08:29N 51°15' E 004°21'0 0.0
2017-Apr-11 07:59N 51°15' E 004°21'0 0.0
2017-Apr-11 07:29N 51°15' E 004°21'0 0.0
2017-Apr-11 06:59N 51°15' E 004°21'0 0.0
2017-Apr-11 06:26N 51°15' E 004°21'0 0.0
2017-Apr-11 05:59N 51°15' E 004°21'  

Dump ship's entire track history